sensor_id;sensor_type;location;lat;lon;timestamp;pressure;altitude;pressure_sealevel;temperature;humidity
3434;BME280;1730;41.932;25.548;2023-06-10T00:02:10;99091.53;;;16.86;100.00
3434;BME280;1730;41.932;25.548;2023-06-10T00:04:36;99088.19;;;16.84;100.00
3434;BME280;1730;41.932;25.548;2023-06-10T00:07:05;99070.41;;;16.95;100.00
3434;BME280;1730;41.932;25.548;2023-06-10T00:09:37;98885.78;;;16.02;100.00
3434;BME280;1730;41.932;25.548;2023-06-10T00:12:04;99007.34;;;16.91;100.00
3434;BME280;1730;41.932;25.548;2023-06-10T00:14:30;99029.38;;;17.03;100.00
3434;BME280;1730;41.932;25.548;2023-06-10T00:16:56;98898.22;;;16.52;100.00
3434;BME280;1730;41.932;25.548;2023-06-10T00:19:22;98780.44;;;15.76;100.00
3434;BME280;1730;41.932;25.548;2023-06-10T00:21:51;99006.12;;;17.07;100.00
3434;BME280;1730;41.932;25.548;2023-06-10T00:24:18;98995.28;;;17.13;100.00
3434;BME280;1730;41.932;25.548;2023-06-10T00:26:43;99007.03;;;17.21;100.00
3434;BME280;1730;41.932;25.548;2023-06-10T00:29:09;98576.88;;;14.71;100.00
3434;BME280;1730;41.932;25.548;2023-06-10T00:31:36;98977.00;;;17.01;100.00
3434;BME280;1730;41.932;25.548;2023-06-10T00:34:02;98980.34;;;16.96;100.00
3434;BME280;1730;41.932;25.548;2023-06-10T00:36:28;98943.44;;;16.53;100.00
3434;BME280;1730;41.932;25.548;2023-06-10T00:38:54;99009.72;;;16.66;100.00
3434;BME280;1730;41.932;25.548;2023-06-10T00:41:19;98765.16;;;15.13;100.00
3434;BME280;1730;41.932;25.548;2023-06-10T00:43:45;98818.16;;;15.58;100.00
3434;BME280;1730;41.932;25.548;2023-06-10T00:46:11;98739.91;;;15.19;100.00
3434;BME280;1730;41.932;25.548;2023-06-10T00:48:41;99008.78;;;16.53;100.00
3434;BME280;1730;41.932;25.548;2023-06-10T00:51:07;98808.62;;;15.68;100.00
3434;BME280;1730;41.932;25.548;2023-06-10T00:53:40;98979.47;;;16.55;100.00
3434;BME280;1730;41.932;25.548;2023-06-10T00:56:06;99000.66;;;16.59;100.00
3434;BME280;1730;41.932;25.548;2023-06-10T00:58:32;98703.53;;;14.85;100.00
3434;BME280;1730;41.932;25.548;2023-06-10T01:00:57;98987.84;;;16.53;100.00
3434;BME280;1730;41.932;25.548;2023-06-10T01:03:23;98463.59;;;13.20;100.00
3434;BME280;1730;41.932;25.548;2023-06-10T01:05:55;98940.50;;;16.48;100.00
3434;BME280;1730;41.932;25.548;2023-06-10T01:08:41;98849.41;;;16.03;100.00
3434;BME280;1730;41.932;25.548;2023-06-10T01:11:17;98995.34;;;16.45;100.00
3434;BME280;1730;41.932;25.548;2023-06-10T01:13:45;98877.16;;;15.64;100.00
3434;BME280;1730;41.932;25.548;2023-06-10T01:16:11;98829.31;;;15.42;100.00
3434;BME280;1730;41.932;25.548;2023-06-10T01:18:37;99011.19;;;16.41;100.00
3434;BME280;1730;41.932;25.548;2023-06-10T01:21:04;98771.28;;;15.21;100.00
3434;BME280;1730;41.932;25.548;2023-06-10T01:23:29;98853.88;;;15.83;100.00
3434;BME280;1730;41.932;25.548;2023-06-10T01:26:08;98988.16;;;16.37;100.00
3434;BME280;1730;41.932;25.548;2023-06-10T01:28:49;98994.06;;;16.47;100.00
3434;BME280;1730;41.932;25.548;2023-06-10T01:31:48;98936.84;;;16.00;100.00
3434;BME280;1730;41.932;25.548;2023-06-10T01:34:18;99010.16;;;16.42;100.00
3434;BME280;1730;41.932;25.548;2023-06-10T01:36:48;98988.91;;;16.24;100.00
3434;BME280;1730;41.932;25.548;2023-06-10T01:39:15;98997.06;;;16.24;100.00
3434;BME280;1730;41.932;25.548;2023-06-10T01:41:42;99004.94;;;16.13;100.00
3434;BME280;1730;41.932;25.548;2023-06-10T01:44:08;99001.78;;;16.09;100.00
3434;BME280;1730;41.932;25.548;2023-06-10T01:46:34;98892.19;;;15.39;100.00
3434;BME280;1730;41.932;25.548;2023-06-10T01:48:59;98545.87;;;13.40;100.00
3434;BME280;1730;41.932;25.548;2023-06-10T01:51:25;98780.13;;;14.60;100.00
3434;BME280;1730;41.932;25.548;2023-06-10T01:53:50;98763.97;;;14.73;100.00
3434;BME280;1730;41.932;25.548;2023-06-10T01:56:16;98882.75;;;15.56;100.00
3434;BME280;1730;41.932;25.548;2023-06-10T01:58:45;98992.16;;;15.86;100.00
3434;BME280;1730;41.932;25.548;2023-06-10T02:01:11;98884.56;;;15.06;100.00
3434;BME280;1730;41.932;25.548;2023-06-10T02:03:37;99034.94;;;15.77;100.00
3434;BME280;1730;41.932;25.548;2023-06-10T02:06:02;98991.72;;;15.61;100.00
3434;BME280;1730;41.932;25.548;2023-06-10T02:08:28;98769.00;;;14.04;100.00
3434;BME280;1730;41.932;25.548;2023-06-10T02:10:53;98586.06;;;12.92;100.00
3434;BME280;1730;41.932;25.548;2023-06-10T02:13:19;99043.28;;;15.75;100.00
3434;BME280;1730;41.932;25.548;2023-06-10T02:15:44;99018.37;;;15.36;100.00
3434;BME280;1730;41.932;25.548;2023-06-10T02:18:10;98888.72;;;14.66;100.00
3434;BME280;1730;41.932;25.548;2023-06-10T02:20:38;98930.25;;;14.67;100.00
3434;BME280;1730;41.932;25.548;2023-06-10T02:23:03;98969.22;;;14.74;100.00
3434;BME280;1730;41.932;25.548;2023-06-10T02:25:29;99090.47;;;15.68;100.00
3434;BME280;1730;41.932;25.548;2023-06-10T02:27:54;99083.62;;;15.72;100.00
3434;BME280;1730;41.932;25.548;2023-06-10T02:30:21;99076.16;;;15.59;100.00
3434;BME280;1730;41.932;25.548;2023-06-10T02:32:46;99076.72;;;15.69;100.00
3434;BME280;1730;41.932;25.548;2023-06-10T02:35:13;99059.25;;;15.78;100.00
3434;BME280;1730;41.932;25.548;2023-06-10T02:37:39;99062.91;;;15.71;100.00
3434;BME280;1730;41.932;25.548;2023-06-10T02:40:06;99067.03;;;15.67;100.00
3434;BME280;1730;41.932;25.548;2023-06-10T02:42:32;99066.81;;;15.62;100.00
3434;BME280;1730;41.932;25.548;2023-06-10T02:44:58;98802.38;;;14.19;100.00
3434;BME280;1730;41.932;25.548;2023-06-10T02:47:24;98964.13;;;15.43;100.00
3434;BME280;1730;41.932;25.548;2023-06-10T02:49:50;98720.63;;;14.22;100.00
3434;BME280;1730;41.932;25.548;2023-06-10T02:52:15;98565.50;;;13.42;100.00
3434;BME280;1730;41.932;25.548;2023-06-10T02:54:41;98956.81;;;16.13;100.00
3434;BME280;1730;41.932;25.548;2023-06-10T02:57:06;98988.13;;;16.31;100.00
3434;BME280;1730;41.932;25.548;2023-06-10T02:59:32;98977.56;;;16.49;100.00
3434;BME280;1730;41.932;25.548;2023-06-10T03:01:58;98980.47;;;16.47;100.00
3434;BME280;1730;41.932;25.548;2023-06-10T03:04:27;98869.19;;;15.62;100.00
3434;BME280;1730;41.932;25.548;2023-06-10T03:06:55;98991.00;;;16.22;100.00
3434;BME280;1730;41.932;25.548;2023-06-10T03:09:20;98977.66;;;16.06;100.00
3434;BME280;1730;41.932;25.548;2023-06-10T03:11:46;99016.50;;;16.21;100.00
3434;BME280;1730;41.932;25.548;2023-06-10T03:14:12;98902.81;;;15.55;100.00
3434;BME280;1730;41.932;25.548;2023-06-10T03:16:37;98900.09;;;15.55;100.00
3434;BME280;1730;41.932;25.548;2023-06-10T03:19:06;99013.84;;;16.00;100.00
3434;BME280;1730;41.932;25.548;2023-06-10T03:21:36;98763.81;;;14.81;100.00
3434;BME280;1730;41.932;25.548;2023-06-10T03:24:03;99010.16;;;16.42;100.00
3434;BME280;1730;41.932;25.548;2023-06-10T03:26:28;98990.91;;;16.44;100.00
3434;BME280;1730;41.932;25.548;2023-06-10T03:28:54;98863.66;;;15.77;100.00
3434;BME280;1730;41.932;25.548;2023-06-10T03:31:19;99008.78;;;16.53;100.00
3434;BME280;1730;41.932;25.548;2023-06-10T03:33:45;98988.03;;;16.52;100.00
3434;BME280;1730;41.932;25.548;2023-06-10T03:36:10;98974.59;;;16.72;100.00
3434;BME280;1730;41.932;25.548;2023-06-10T03:38:36;98757.78;;;15.34;100.00
3434;BME280;1730;41.932;25.548;2023-06-10T03:41:02;98873.94;;;16.09;100.00
3434;BME280;1730;41.932;25.548;2023-06-10T03:43:28;98980.09;;;16.91;100.00
3434;BME280;1730;41.932;25.548;2023-06-10T03:45:53;98855.50;;;16.05;100.00
3434;BME280;1730;41.932;25.548;2023-06-10T03:48:19;98702.78;;;15.26;100.00
3434;BME280;1730;41.932;25.548;2023-06-10T03:50:45;98948.50;;;16.97;100.00
3434;BME280;1730;41.932;25.548;2023-06-10T03:53:12;98747.00;;;15.82;100.00
3434;BME280;1730;41.932;25.548;2023-06-10T03:55:38;98943.34;;;17.35;100.00
3434;BME280;1730;41.932;25.548;2023-06-10T03:58:03;98882.72;;;17.06;100.00
3434;BME280;1730;41.932;25.548;2023-06-10T04:00:29;98950.69;;;17.47;100.00
3434;BME280;1730;41.932;25.548;2023-06-10T04:02:55;98780.38;;;16.64;100.00
3434;BME280;1730;41.932;25.548;2023-06-10T04:05:23;98938.31;;;17.38;100.00
3434;BME280;1730;41.932;25.548;2023-06-10T04:07:49;98902.87;;;17.32;100.00
3434;BME280;1730;41.932;25.548;2023-06-10T04:10:15;98903.13;;;17.70;100.00
3434;BME280;1730;41.932;25.548;2023-06-10T04:12:41;98752.97;;;16.86;100.00
3434;BME280;1730;41.932;25.548;2023-06-10T04:15:07;98777.09;;;16.89;100.00
3434;BME280;1730;41.932;25.548;2023-06-10T04:17:33;98915.50;;;18.12;100.00
3434;BME280;1730;41.932;25.548;2023-06-10T04:19:59;98738.09;;;16.95;100.00
3434;BME280;1730;41.932;25.548;2023-06-10T04:22:27;98924.28;;;18.27;100.00
3434;BME280;1730;41.932;25.548;2023-06-10T04:24:52;98908.53;;;18.29;100.00
3434;BME280;1730;41.932;25.548;2023-06-10T04:27:18;98894.38;;;18.65;100.00
3434;BME280;1730;41.932;25.548;2023-06-10T04:29:44;98880.81;;;18.83;100.00
3434;BME280;1730;41.932;25.548;2023-06-10T04:32:09;98812.03;;;18.48;100.00
3434;BME280;1730;41.932;25.548;2023-06-10T04:34:36;98699.25;;;17.72;100.00
3434;BME280;1730;41.932;25.548;2023-06-10T04:37:01;98791.28;;;18.47;100.00
3434;BME280;1730;41.932;25.548;2023-06-10T04:39:27;98864.53;;;19.64;100.00
3434;BME280;1730;41.932;25.548;2023-06-10T04:41:52;98834.37;;;19.70;100.00
3434;BME280;1730;41.932;25.548;2023-06-10T04:44:18;98832.28;;;19.91;100.00
3434;BME280;1730;41.932;25.548;2023-06-10T04:46:44;98836.63;;;19.98;100.00
3434;BME280;1730;41.932;25.548;2023-06-10T04:49:09;98748.88;;;19.75;100.00
3434;BME280;1730;41.932;25.548;2023-06-10T04:51:35;98822.50;;;20.38;100.00
3434;BME280;1730;41.932;25.548;2023-06-10T04:54:01;98632.78;;;20.01;100.00
3434;BME280;1730;41.932;25.548;2023-06-10T04:56:30;98794.06;;;20.98;100.00
3434;BME280;1730;41.932;25.548;2023-06-10T04:58:56;98706.94;;;20.29;100.00
3434;BME280;1730;41.932;25.548;2023-06-10T05:01:22;98791.06;;;21.41;100.00
3434;BME280;1730;41.932;25.548;2023-06-10T05:03:48;98774.84;;;21.51;100.00
3434;BME280;1730;41.932;25.548;2023-06-10T05:06:13;98788.59;;;21.40;100.00
3434;BME280;1730;41.932;25.548;2023-06-10T05:08:39;98781.56;;;21.67;100.00
3434;BME280;1730;41.932;25.548;2023-06-10T05:11:04;98635.66;;;21.00;100.00
3434;BME280;1730;41.932;25.548;2023-06-10T05:13:30;98773.44;;;22.07;100.00
3434;BME280;1730;41.932;25.548;2023-06-10T05:15:55;98762.31;;;22.14;100.00
3434;BME280;1730;41.932;25.548;2023-06-10T05:18:21;98623.50;;;21.08;100.00
3434;BME280;1730;41.932;25.548;2023-06-10T05:20:46;98684.31;;;21.28;100.00
3434;BME280;1730;41.932;25.548;2023-06-10T05:23:12;98775.19;;;21.90;100.00
3434;BME280;1730;41.932;25.548;2023-06-10T05:25:37;98548.06;;;20.82;100.00
3434;BME280;1730;41.932;25.548;2023-06-10T05:28:03;98762.34;;;22.42;100.00
3434;BME280;1730;41.932;25.548;2023-06-10T05:30:29;98419.38;;;21.27;100.00
3434;BME280;1730;41.932;25.548;2023-06-10T05:32:54;98688.84;;;24.04;100.00
3434;BME280;1730;41.932;25.548;2023-06-10T05:35:21;98624.53;;;25.43;100.00
3434;BME280;1730;41.932;25.548;2023-06-10T05:37:47;98637.66;;;25.68;100.00
3434;BME280;1730;41.932;25.548;2023-06-10T05:40:13;98555.25;;;26.22;100.00
3434;BME280;1730;41.932;25.548;2023-06-10T05:42:38;98620.03;;;26.97;100.00
3434;BME280;1730;41.932;25.548;2023-06-10T05:45:05;98608.66;;;28.13;100.00
3434;BME280;1730;41.932;25.548;2023-06-10T05:47:32;98606.41;;;28.25;100.00
3434;BME280;1730;41.932;25.548;2023-06-10T05:49:57;98451.53;;;27.54;100.00
3434;BME280;1730;41.932;25.548;2023-06-10T05:52:23;98574.50;;;28.61;100.00
3434;BME280;1730;41.932;25.548;2023-06-10T05:54:49;98555.94;;;28.18;100.00
3434;BME280;1730;41.932;25.548;2023-06-10T05:57:15;98591.41;;;29.28;100.00
3434;BME280;1730;41.932;25.548;2023-06-10T05:59:40;98585.97;;;29.46;100.00
3434;BME280;1730;41.932;25.548;2023-06-10T06:02:06;98529.28;;;28.95;100.00
3434;BME280;1730;41.932;25.548;2023-06-10T06:04:32;98525.25;;;27.45;100.00
3434;BME280;1730;41.932;25.548;2023-06-10T06:06:57;98581.22;;;27.32;100.00
3434;BME280;1730;41.932;25.548;2023-06-10T06:09:23;98416.72;;;26.59;100.00
3434;BME280;1730;41.932;25.548;2023-06-10T06:11:48;98605.56;;;27.55;100.00
3434;BME280;1730;41.932;25.548;2023-06-10T06:14:14;98613.37;;;26.77;100.00
3434;BME280;1730;41.932;25.548;2023-06-10T06:16:39;98468.63;;;25.81;100.00
3434;BME280;1730;41.932;25.548;2023-06-10T06:19:05;98502.16;;;26.30;100.00
3434;BME280;1730;41.932;25.548;2023-06-10T06:21:30;98606.69;;;26.28;100.00
3434;BME280;1730;41.932;25.548;2023-06-10T06:23:56;98587.59;;;26.26;100.00
3434;BME280;1730;41.932;25.548;2023-06-10T06:26:21;98520.28;;;25.70;100.00
3434;BME280;1730;41.932;25.548;2023-06-10T06:28:47;98494.06;;;25.78;100.00
3434;BME280;1730;41.932;25.548;2023-06-10T06:31:12;98523.72;;;26.33;100.00
3434;BME280;1730;41.932;25.548;2023-06-10T06:33:38;98393.59;;;25.06;100.00
3434;BME280;1730;41.932;25.548;2023-06-10T06:36:03;98582.00;;;26.11;100.00
3434;BME280;1730;41.932;25.548;2023-06-10T06:38:29;98483.06;;;26.08;100.00
3434;BME280;1730;41.932;25.548;2023-06-10T06:40:54;98588.72;;;27.16;100.00
3434;BME280;1730;41.932;25.548;2023-06-10T06:43:20;98484.47;;;26.36;100.00
3434;BME280;1730;41.932;25.548;2023-06-10T06:45:45;98590.37;;;27.32;100.00
3434;BME280;1730;41.932;25.548;2023-06-10T06:48:11;98585.69;;;27.23;100.00
3434;BME280;1730;41.932;25.548;2023-06-10T06:50:37;98577.88;;;28.09;100.00
3434;BME280;1730;41.932;25.548;2023-06-10T06:53:03;98570.81;;;27.83;100.00
3434;BME280;1730;41.932;25.548;2023-06-10T06:55:29;98585.09;;;28.15;100.00
3434;BME280;1730;41.932;25.548;2023-06-10T06:57:54;98565.72;;;28.00;100.00
3434;BME280;1730;41.932;25.548;2023-06-10T07:00:21;98565.94;;;28.09;100.00
3434;BME280;1730;41.932;25.548;2023-06-10T07:02:46;98574.28;;;28.53;100.00
3434;BME280;1730;41.932;25.548;2023-06-10T07:05:12;98560.87;;;29.51;100.00
3434;BME280;1730;41.932;25.548;2023-06-10T07:07:38;98552.97;;;29.11;100.00
3434;BME280;1730;41.932;25.548;2023-06-10T07:10:03;98562.00;;;28.98;100.00
3434;BME280;1730;41.932;25.548;2023-06-10T07:12:29;98574.13;;;29.07;100.00
3434;BME280;1730;41.932;25.548;2023-06-10T07:14:55;98458.03;;;27.78;100.00
3434;BME280;1730;41.932;25.548;2023-06-10T07:17:20;98558.88;;;28.76;100.00
3434;BME280;1730;41.932;25.548;2023-06-10T07:19:46;98563.75;;;28.16;100.00
3434;BME280;1730;41.932;25.548;2023-06-10T07:22:11;98567.87;;;27.64;100.00
3434;BME280;1730;41.932;25.548;2023-06-10T07:24:37;98544.06;;;28.07;100.00
3434;BME280;1730;41.932;25.548;2023-06-10T07:27:03;98400.41;;;27.26;100.00
3434;BME280;1730;41.932;25.548;2023-06-10T07:29:28;98558.03;;;28.36;100.00
3434;BME280;1730;41.932;25.548;2023-06-10T07:31:54;98555.19;;;28.46;100.00
3434;BME280;1730;41.932;25.548;2023-06-10T07:34:19;98446.69;;;27.75;100.00
3434;BME280;1730;41.932;25.548;2023-06-10T07:36:45;98477.00;;;27.56;100.00
3434;BME280;1730;41.932;25.548;2023-06-10T07:39:10;98431.19;;;27.25;100.00
3434;BME280;1730;41.932;25.548;2023-06-10T07:41:37;98558.03;;;27.87;100.00
3434;BME280;1730;41.932;25.548;2023-06-10T07:44:02;98542.59;;;28.25;100.00
3434;BME280;1730;41.932;25.548;2023-06-10T07:46:28;98545.97;;;28.56;100.00
3434;BME280;1730;41.932;25.548;2023-06-10T07:48:54;98259.97;;;27.37;100.00
3434;BME280;1730;41.932;25.548;2023-06-10T07:51:20;98546.47;;;28.63;100.00
3434;BME280;1730;41.932;25.548;2023-06-10T07:53:48;98517.75;;;28.44;100.00
3434;BME280;1730;41.932;25.548;2023-06-10T07:56:13;98454.78;;;28.05;100.00
3434;BME280;1730;41.932;25.548;2023-06-10T07:58:39;98560.94;;;28.60;100.00
3434;BME280;1730;41.932;25.548;2023-06-10T08:01:04;98419.12;;;27.94;100.00
3434;BME280;1730;41.932;25.548;2023-06-10T08:03:30;98356.47;;;27.64;100.00
3434;BME280;1730;41.932;25.548;2023-06-10T08:05:56;98457.31;;;28.02;100.00
3434;BME280;1730;41.932;25.548;2023-06-10T08:08:23;98524.69;;;28.46;100.00
3434;BME280;1730;41.932;25.548;2023-06-10T08:10:50;98476.00;;;28.59;100.00
3434;BME280;1730;41.932;25.548;2023-06-10T08:13:15;98468.41;;;28.98;100.00
3434;BME280;1730;41.932;25.548;2023-06-10T08:15:41;98432.06;;;28.71;100.00
3434;BME280;1730;41.932;25.548;2023-06-10T08:18:06;98426.91;;;28.59;94.28
3434;BME280;1730;41.932;25.548;2023-06-10T08:20:32;98496.50;;;29.21;100.00
3434;BME280;1730;41.932;25.548;2023-06-10T08:22:57;98535.81;;;29.57;94.64
3434;BME280;1730;41.932;25.548;2023-06-10T08:25:23;98270.84;;;27.91;93.70
3434;BME280;1730;41.932;25.548;2023-06-10T08:27:49;98369.22;;;29.23;94.06
3434;BME280;1730;41.932;25.548;2023-06-10T08:30:16;98445.84;;;28.81;90.26
3434;BME280;1730;41.932;25.548;2023-06-10T08:32:42;98354.94;;;28.15;97.57
3434;BME280;1730;41.932;25.548;2023-06-10T08:35:08;98498.19;;;28.93;97.05
3434;BME280;1730;41.932;25.548;2023-06-10T08:37:33;98549.56;;;29.67;86.03
3434;BME280;1730;41.932;25.548;2023-06-10T08:39:59;98543.28;;;29.61;79.90
3434;BME280;1730;41.932;25.548;2023-06-10T08:42:28;98548.31;;;29.35;72.89
3434;BME280;1730;41.932;25.548;2023-06-10T08:44:55;98546.69;;;29.29;82.12
3434;BME280;1730;41.932;25.548;2023-06-10T08:47:23;98538.78;;;29.65;81.88
3434;BME280;1730;41.932;25.548;2023-06-10T08:49:49;98410.59;;;28.82;86.43
3434;BME280;1730;41.932;25.548;2023-06-10T08:52:16;98536.59;;;29.81;93.43
3434;BME280;1730;41.932;25.548;2023-06-10T08:54:48;98137.69;;;26.91;100.00
3434;BME280;1730;41.932;25.548;2023-06-10T08:57:15;98524.19;;;29.31;96.65
3434;BME280;1730;41.932;25.548;2023-06-10T08:59:41;98527.25;;;29.29;93.28
3434;BME280;1730;41.932;25.548;2023-06-10T09:02:07;98503.91;;;29.73;92.66
3434;BME280;1730;41.932;25.548;2023-06-10T09:04:34;98517.00;;;29.25;92.74
3434;BME280;1730;41.932;25.548;2023-06-10T09:07:02;98417.00;;;28.48;95.33
3434;BME280;1730;41.932;25.548;2023-06-10T09:09:28;98515.94;;;29.44;95.31
3434;BME280;1730;41.932;25.548;2023-06-10T09:11:55;98516.13;;;29.53;96.38
3434;BME280;1730;41.932;25.548;2023-06-10T09:14:21;98514.28;;;28.96;100.00
3434;BME280;1730;41.932;25.548;2023-06-10T09:16:46;98439.88;;;28.93;100.00
3434;BME280;1730;41.932;25.548;2023-06-10T09:19:15;98431.56;;;28.64;100.00
3434;BME280;1730;41.932;25.548;2023-06-10T09:21:41;98407.50;;;28.83;100.00
3434;BME280;1730;41.932;25.548;2023-06-10T09:24:07;98466.38;;;28.51;100.00
3434;BME280;1730;41.932;25.548;2023-06-10T09:26:32;98392.47;;;28.60;99.97
3434;BME280;1730;41.932;25.548;2023-06-10T09:29:05;98315.13;;;28.30;90.05
3434;BME280;1730;41.932;25.548;2023-06-10T09:31:34;98419.09;;;28.61;88.98
3434;BME280;1730;41.932;25.548;2023-06-10T09:34:11;98500.09;;;29.45;83.09
3434;BME280;1730;41.932;25.548;2023-06-10T09:36:37;98491.13;;;29.29;79.62
3434;BME280;1730;41.932;25.548;2023-06-10T09:39:03;98500.75;;;29.13;85.40
3434;BME280;1730;41.932;25.548;2023-06-10T09:41:34;98472.81;;;28.76;82.87
3434;BME280;1730;41.932;25.548;2023-06-10T09:44:19;98495.31;;;29.03;79.01
3434;BME280;1730;41.932;25.548;2023-06-10T09:46:46;98493.81;;;29.39;69.76
3434;BME280;1730;41.932;25.548;2023-06-10T09:49:13;98492.75;;;29.06;65.25
3434;BME280;1730;41.932;25.548;2023-06-10T09:51:59;98495.47;;;29.11;63.99
3434;BME280;1730;41.932;25.548;2023-06-10T09:54:31;98506.25;;;29.42;62.16
3434;BME280;1730;41.932;25.548;2023-06-10T09:56:57;98493.31;;;29.56;64.41
3434;BME280;1730;41.932;25.548;2023-06-10T09:59:33;98485.13;;;29.65;64.62
3434;BME280;1730;41.932;25.548;2023-06-10T10:02:00;98452.66;;;29.60;59.63
3434;BME280;1730;41.932;25.548;2023-06-10T10:04:26;98498.09;;;30.12;59.38
3434;BME280;1730;41.932;25.548;2023-06-10T10:06:52;98494.88;;;30.05;56.80
3434;BME280;1730;41.932;25.548;2023-06-10T10:09:18;98486.41;;;29.72;60.85
3434;BME280;1730;41.932;25.548;2023-06-10T10:11:44;98488.88;;;29.55;63.18
3434;BME280;1730;41.932;25.548;2023-06-10T10:14:11;98410.00;;;29.27;62.75
3434;BME280;1730;41.932;25.548;2023-06-10T10:16:41;98487.38;;;29.81;60.47
3434;BME280;1730;41.932;25.548;2023-06-10T10:19:11;98478.56;;;29.55;57.36
3434;BME280;1730;41.932;25.548;2023-06-10T10:21:44;98480.62;;;29.69;54.28
3434;BME280;1730;41.932;25.548;2023-06-10T10:24:18;98271.72;;;28.39;52.88
3434;BME280;1730;41.932;25.548;2023-06-10T10:26:48;98474.63;;;29.38;60.33
3434;BME280;1730;41.932;25.548;2023-06-10T10:29:24;98390.03;;;28.83;63.21
3434;BME280;1730;41.932;25.548;2023-06-10T10:31:51;98463.19;;;29.63;66.50
3434;BME280;1730;41.932;25.548;2023-06-10T10:34:30;98467.53;;;29.03;74.09
3434;BME280;1730;41.932;25.548;2023-06-10T10:36:58;98460.31;;;29.26;73.82
3434;BME280;1730;41.932;25.548;2023-06-10T10:39:25;98351.56;;;28.47;77.02
3434;BME280;1730;41.932;25.548;2023-06-10T10:41:54;98470.44;;;29.17;76.14
3434;BME280;1730;41.932;25.548;2023-06-10T10:44:20;98378.50;;;28.94;76.66
3434;BME280;1730;41.932;25.548;2023-06-10T10:46:50;98462.59;;;29.66;73.55
3434;BME280;1730;41.932;25.548;2023-06-10T10:49:17;98460.41;;;29.63;73.94
3434;BME280;1730;41.932;25.548;2023-06-10T10:52:02;98462.41;;;30.00;75.34
3434;BME280;1730;41.932;25.548;2023-06-10T10:54:33;98452.91;;;29.82;75.44
3434;BME280;1730;41.932;25.548;2023-06-10T10:57:15;98456.03;;;29.38;79.12
3434;BME280;1730;41.932;25.548;2023-06-10T10:59:46;98453.91;;;29.49;77.21
3434;BME280;1730;41.932;25.548;2023-06-10T11:02:32;98292.19;;;28.72;75.45
3434;BME280;1730;41.932;25.548;2023-06-10T11:04:58;98274.00;;;28.61;73.28
3434;BME280;1730;41.932;25.548;2023-06-10T11:07:25;98266.47;;;29.23;71.31
3434;BME280;1730;41.932;25.548;2023-06-10T11:15:19;98448.03;;;30.76;70.90
3434;BME280;1730;41.932;25.548;2023-06-10T11:23:39;98445.03;;;30.08;65.78
3434;BME280;1730;41.932;25.548;2023-06-10T11:29:02;98438.41;;;30.04;60.50
3434;BME280;1730;41.932;25.548;2023-06-10T11:31:49;98427.78;;;30.57;61.30
3434;BME280;1730;41.932;25.548;2023-06-10T11:34:21;98430.37;;;30.67;63.47
3434;BME280;1730;41.932;25.548;2023-06-10T11:36:52;98281.94;;;29.47;64.26
3434;BME280;1730;41.932;25.548;2023-06-10T11:39:20;98424.44;;;30.09;61.05
3434;BME280;1730;41.932;25.548;2023-06-10T11:41:45;98422.34;;;30.33;58.01
3434;BME280;1730;41.932;25.548;2023-06-10T11:44:12;98424.44;;;30.09;56.17
3434;BME280;1730;41.932;25.548;2023-06-10T11:46:39;98417.56;;;30.20;55.32
3434;BME280;1730;41.932;25.548;2023-06-10T11:49:05;98324.22;;;29.26;56.02
3434;BME280;1730;41.932;25.548;2023-06-10T11:51:38;98416.81;;;29.59;57.08
3434;BME280;1730;41.932;25.548;2023-06-10T11:54:04;98426.44;;;29.85;53.53
3434;BME280;1730;41.932;25.548;2023-06-10T11:56:31;98442.41;;;29.79;52.98
3434;BME280;1730;41.932;25.548;2023-06-10T11:59:03;98423.44;;;29.63;52.56
3434;BME280;1730;41.932;25.548;2023-06-10T12:01:44;98421.56;;;29.58;55.72
3434;BME280;1730;41.932;25.548;2023-06-10T12:04:12;98420.25;;;28.84;60.10
3434;BME280;1730;41.932;25.548;2023-06-10T12:06:39;98300.13;;;28.02;72.83
3434;BME280;1730;41.932;25.548;2023-06-10T12:09:06;98417.84;;;28.49;87.86
3434;BME280;1730;41.932;25.548;2023-06-10T12:11:32;98231.84;;;26.76;100.00
3434;BME280;1730;41.932;25.548;2023-06-10T12:13:58;98345.00;;;27.31;100.00
3434;BME280;1730;41.932;25.548;2023-06-10T12:16:23;98325.41;;;27.23;100.00
3434;BME280;1730;41.932;25.548;2023-06-10T12:18:49;98220.47;;;26.18;100.00
3434;BME280;1730;41.932;25.548;2023-06-10T12:21:24;98340.72;;;26.31;100.00
3434;BME280;1730;41.932;25.548;2023-06-10T12:31:58;98359.31;;;26.95;100.00
3434;BME280;1730;41.932;25.548;2023-06-10T12:34:35;98427.75;;;27.48;100.00
3434;BME280;1730;41.932;25.548;2023-06-10T12:37:03;98446.16;;;27.14;100.00
3434;BME280;1730;41.932;25.548;2023-06-10T12:39:32;98437.94;;;26.94;100.00
3434;BME280;1730;41.932;25.548;2023-06-10T12:41:58;98447.94;;;26.64;100.00
3434;BME280;1730;41.932;25.548;2023-06-10T12:44:31;98434.06;;;26.84;100.00
3434;BME280;1730;41.932;25.548;2023-06-10T12:46:57;98436.53;;;26.96;100.00
3434;BME280;1730;41.932;25.548;2023-06-10T12:49:23;98428.75;;;27.03;100.00
3434;BME280;1730;41.932;25.548;2023-06-10T12:51:49;98079.59;;;25.03;100.00
3434;BME280;1730;41.932;25.548;2023-06-10T12:54:14;98447.19;;;27.33;100.00
3434;BME280;1730;41.932;25.548;2023-06-10T12:56:40;98435.41;;;27.07;100.00
3434;BME280;1730;41.932;25.548;2023-06-10T12:59:05;98444.56;;;26.98;100.00
3434;BME280;1730;41.932;25.548;2023-06-10T13:01:31;98440.97;;;26.92;100.00
3434;BME280;1730;41.932;25.548;2023-06-10T13:03:58;98453.47;;;26.69;100.00
3434;BME280;1730;41.932;25.548;2023-06-10T13:06:23;98359.75;;;26.42;100.00
3434;BME280;1730;41.932;25.548;2023-06-10T13:08:49;98407.31;;;26.44;100.00
3434;BME280;1730;41.932;25.548;2023-06-10T13:11:16;98354.78;;;26.39;100.00
3434;BME280;1730;41.932;25.548;2023-06-10T13:13:42;98431.81;;;27.02;100.00
3434;BME280;1730;41.932;25.548;2023-06-10T13:16:08;98194.66;;;25.58;100.00
3434;BME280;1730;41.932;25.548;2023-06-10T13:18:34;98320.53;;;26.25;100.00
3434;BME280;1730;41.932;25.548;2023-06-10T13:21:05;98158.47;;;25.70;100.00
3434;BME280;1730;41.932;25.548;2023-06-10T13:23:31;98248.37;;;26.12;100.00
3434;BME280;1730;41.932;25.548;2023-06-10T13:25:57;98436.25;;;27.03;100.00